createdAt,value
2023-05-17T00:01:03.649Z,98947.22
2023-05-17T00:04:06.439Z,98946.22
2023-05-17T00:07:08.989Z,98947.75
2023-05-17T00:10:13.152Z,98945.09
2023-05-17T00:13:15.662Z,98952.47
2023-05-17T00:16:18.234Z,98960.75
2023-05-17T00:19:21.017Z,98955.38
2023-05-17T00:22:23.833Z,98959.00
2023-05-17T00:25:27.872Z,98953.44
2023-05-17T00:28:30.855Z,98965.94
2023-05-17T00:31:33.556Z,98971.53
2023-05-17T00:34:36.231Z,98972.94
2023-05-17T00:37:39.222Z,98986.25
2023-05-17T00:40:43.594Z,98981.13
2023-05-17T00:43:46.247Z,98982.16
2023-05-17T00:46:50.520Z,98986.34
2023-05-17T00:49:53.288Z,98979.28
2023-05-17T00:52:56.704Z,98983.34
2023-05-17T00:56:01.019Z,98979.28
2023-05-17T00:59:06.356Z,98984.94
2023-05-17T01:02:09.370Z,98991.50
2023-05-17T01:05:12.313Z,98981.31
2023-05-17T01:08:15.069Z,98988.97
2023-05-17T01:11:27.934Z,98992.50
2023-05-17T01:14:40.041Z,98992.44
2023-05-17T01:17:53.621Z,98993.44
2023-05-17T01:20:59.815Z,99003.22
2023-05-17T01:24:14.708Z,99004.63
2023-05-17T01:27:19.988Z,99000.66
2023-05-17T01:30:23.354Z,99009.63
2023-05-17T01:33:26.912Z,99005.31
2023-05-17T01:36:29.757Z,99002.66
2023-05-17T01:39:32.431Z,99009.44
2023-05-17T01:42:40.190Z,99005.31
2023-05-17T01:45:45.371Z,99004.50
2023-05-17T01:48:53.791Z,99005.53
2023-05-17T01:51:59.312Z,99009.88
2023-05-17T01:55:06.630Z,99009.94
2023-05-17T01:58:12.049Z,99012.16
2023-05-17T02:01:15.901Z,99018.72
2023-05-17T02:04:19.906Z,99014.16
2023-05-17T02:07:23.013Z,99020.41
2023-05-17T02:10:26.122Z,99017.44
2023-05-17T02:13:30.103Z,99025.41
2023-05-17T02:16:32.680Z,99017.44
2023-05-17T02:19:35.594Z,99027.34
2023-05-17T02:22:38.947Z,99024.38
2023-05-17T02:25:41.673Z,99033.41
2023-05-17T02:28:45.636Z,99036.75
2023-05-17T02:31:48.398Z,99032.69
2023-05-17T02:34:50.982Z,99026.88
2023-05-17T02:37:53.632Z,99029.38
2023-05-17T02:40:56.273Z,99036.47
2023-05-17T02:44:00.464Z,99039.63
2023-05-17T02:47:03.107Z,99032.63
2023-05-17T02:50:06.662Z,99030.22
2023-05-17T02:53:09.633Z,99030.53
2023-05-17T02:56:12.835Z,99042.81
2023-05-17T02:59:16.920Z,99032.59
2023-05-17T03:02:19.754Z,99044.34
2023-05-17T03:05:22.516Z,99035.75
2023-05-17T03:08:25.117Z,99039.06
2023-05-17T03:11:27.907Z,99040.72
2023-05-17T03:14:32.040Z,99042.63
2023-05-17T03:17:34.715Z,99036.91
2023-05-17T03:20:37.439Z,99043.50
2023-05-17T03:23:40.093Z,99047.88
2023-05-17T03:26:42.618Z,99044.66
2023-05-17T03:29:47.235Z,99056.91
2023-05-17T03:32:50.186Z,99059.66
2023-05-17T03:35:53.016Z,99056.41
2023-05-17T03:38:55.673Z,99052.97
2023-05-17T03:41:58.814Z,99060.00
2023-05-17T03:45:03.106Z,99061.38
2023-05-17T03:48:06.424Z,99060.81
2023-05-17T03:51:09.223Z,99071.09
2023-05-17T03:54:12.266Z,99077.34
2023-05-17T03:57:15.439Z,99073.59
2023-05-17T04:00:21.950Z,99072.72
2023-05-17T04:03:24.654Z,99075.63
2023-05-17T04:06:27.273Z,99079.91
2023-05-17T04:09:32.035Z,99079.31
2023-05-17T04:12:35.165Z,99084.75
2023-05-17T04:15:39.193Z,99083.09
2023-05-17T04:18:42.087Z,99095.00
2023-05-17T04:21:45.760Z,99097.69
2023-05-17T04:24:48.411Z,99100.59
2023-05-17T04:27:51.125Z,99108.47
2023-05-17T04:30:55.196Z,99116.97
2023-05-17T04:33:57.914Z,99115.44
2023-05-17T04:37:00.639Z,99117.00
2023-05-17T04:40:03.908Z,99118.88
2023-05-17T04:43:06.655Z,99127.44
2023-05-17T04:46:11.651Z,99119.47
2023-05-17T04:49:14.256Z,99128.22
2023-05-17T04:52:16.860Z,99125.91
2023-05-17T04:55:19.500Z,99128.13
2023-05-17T04:58:24.135Z,99137.47
2023-05-17T05:01:29.559Z,99136.44
2023-05-17T05:04:32.265Z,99145.69
2023-05-17T05:07:35.032Z,99150.78
2023-05-17T05:10:37.841Z,99156.66
2023-05-17T05:13:41.792Z,99162.94
2023-05-17T05:16:45.873Z,99166.03
2023-05-17T05:19:48.678Z,99162.09
2023-05-17T05:22:51.609Z,99165.41
2023-05-17T05:25:54.230Z,99169.25
2023-05-17T05:28:56.961Z,99173.25
2023-05-17T05:32:01.092Z,99170.91
2023-05-17T05:35:03.763Z,99177.38
2023-05-17T05:38:06.400Z,99168.25
2023-05-17T05:41:08.947Z,99171.84
2023-05-17T05:44:11.675Z,99183.06
2023-05-17T05:47:15.814Z,99184.16
2023-05-17T05:50:18.394Z,99183.13
2023-05-17T05:53:21.154Z,99189.78
2023-05-17T05:56:25.662Z,99192.59
2023-05-17T05:59:28.396Z,99189.19
2023-05-17T06:02:32.519Z,99188.97
2023-05-17T06:05:35.704Z,99202.97
2023-05-17T06:08:38.309Z,99208.41
2023-05-17T06:11:40.970Z,99207.66
2023-05-17T06:14:43.633Z,99216.97
2023-05-17T06:17:47.677Z,99214.03
2023-05-17T06:20:50.377Z,99214.72
2023-05-17T06:23:54.263Z,99223.34
2023-05-17T06:26:56.908Z,99217.16
2023-05-17T06:29:59.878Z,99217.84
2023-05-17T06:33:06.454Z,99217.03
2023-05-17T06:36:09.373Z,99227.88
2023-05-17T06:39:12.096Z,99224.97
2023-05-17T06:42:14.663Z,99223.66
2023-05-17T06:45:17.221Z,99231.81
2023-05-17T06:48:21.389Z,99226.28
2023-05-17T06:51:24.411Z,99230.22
2023-05-17T06:54:27.030Z,99218.34
2023-05-17T06:57:29.690Z,99230.00
2023-05-17T07:00:32.595Z,99232.09
2023-05-17T07:03:37.156Z,99230.72
2023-05-17T07:06:39.861Z,99228.13
2023-05-17T07:09:42.734Z,99234.19
2023-05-17T07:12:45.481Z,99233.06
2023-05-17T07:15:48.190Z,99230.75
2023-05-17T07:18:52.322Z,99230.47
2023-05-17T07:21:55.377Z,99226.81
2023-05-17T07:24:57.933Z,99233.59
2023-05-17T07:28:00.654Z,99226.38
2023-05-17T07:31:03.355Z,99227.81
2023-05-17T07:34:07.452Z,99229.25
2023-05-17T07:37:10.144Z,99230.34
2023-05-17T07:40:13.641Z,99239.22
2023-05-17T07:43:16.526Z,99235.81
2023-05-17T07:46:19.362Z,99245.50
2023-05-17T07:49:26.018Z,99242.75
2023-05-17T07:52:28.625Z,99244.63
2023-05-17T07:55:31.299Z,99248.09
2023-05-17T07:58:34.012Z,99235.50
2023-05-17T08:01:36.563Z,99238.22
2023-05-17T08:04:41.981Z,99243.19
2023-05-17T08:07:44.636Z,99240.72
2023-05-17T08:10:47.218Z,99244.72
2023-05-17T08:13:49.766Z,99243.47
2023-05-17T08:16:52.569Z,99242.16
2023-05-17T08:19:56.985Z,99240.66
2023-05-17T08:22:59.763Z,99246.25
2023-05-17T08:26:02.323Z,99239.06
2023-05-17T08:29:05.631Z,99241.97
2023-05-17T08:32:09.176Z,99240.19
2023-05-17T08:35:13.212Z,99236.66
2023-05-17T08:38:16.677Z,99236.19
2023-05-17T08:41:21.496Z,99234.75
2023-05-17T08:44:24.156Z,99247.25
2023-05-17T08:47:33.973Z,99236.31
2023-05-17T08:50:38.854Z,99240.78
2023-05-17T08:53:42.682Z,99234.47
2023-05-17T08:56:45.345Z,99233.81
2023-05-17T08:59:48.757Z,99235.63
2023-05-17T09:02:51.571Z,99238.41
2023-05-17T09:05:55.740Z,99232.88
2023-05-17T09:09:01.402Z,99236.44
2023-05-17T09:12:04.393Z,99235.38
2023-05-17T09:15:17.506Z,99240.44
2023-05-17T09:18:20.253Z,99244.72
2023-05-17T09:21:24.902Z,99241.88
2023-05-17T09:24:31.526Z,99242.56
2023-05-17T09:27:34.435Z,99247.50
2023-05-17T09:30:39.447Z,99240.44
2023-05-17T09:33:46.045Z,99245.34
2023-05-17T09:36:50.067Z,99245.19
2023-05-17T09:39:52.769Z,99245.44
2023-05-17T09:42:56.182Z,99239.16
2023-05-17T09:45:59.060Z,99240.44
2023-05-17T09:49:03.287Z,99249.19
2023-05-17T09:52:09.308Z,99250.22
2023-05-17T09:55:13.065Z,99244.66
2023-05-17T09:58:15.653Z,99245.91
2023-05-17T10:01:18.586Z,99246.97
2023-05-17T10:04:24.132Z,99238.97
2023-05-17T10:07:28.141Z,99239.97
2023-05-17T10:10:31.517Z,99241.63
2023-05-17T10:13:36.436Z,99233.81
2023-05-17T10:16:40.842Z,99242.56
2023-05-17T10:19:44.499Z,99246.44
2023-05-17T10:22:49.622Z,99239.16
2023-05-17T10:25:52.755Z,99254.59
2023-05-17T10:29:00.646Z,99245.72
2023-05-17T10:32:05.957Z,99252.00
2023-05-17T10:35:12.035Z,99249.88
2023-05-17T10:38:16.401Z,99248.94
2023-05-17T10:41:20.003Z,99256.81
2023-05-17T10:44:23.371Z,99249.16
2023-05-17T10:47:32.696Z,99257.66
2023-05-17T10:50:43.047Z,99245.44
2023-05-17T10:54:07.067Z,99244.72
2023-05-17T10:57:09.847Z,99239.91
2023-05-17T11:00:21.030Z,99245.25
2023-05-17T11:03:28.755Z,99249.59
2023-05-17T11:06:36.940Z,99254.50
2023-05-17T11:09:41.742Z,99251.84
2023-05-17T11:12:46.935Z,99251.13
2023-05-17T11:16:04.145Z,99247.25
2023-05-17T11:19:11.200Z,99247.22
2023-05-17T11:22:16.880Z,99250.94
2023-05-17T11:25:22.521Z,99249.66
2023-05-17T11:28:25.236Z,99240.31
2023-05-17T11:31:32.043Z,99243.69
2023-05-17T11:34:35.178Z,99242.31
2023-05-17T11:37:37.999Z,99244.66
2023-05-17T11:40:42.362Z,99237.41
2023-05-17T11:43:47.308Z,99242.06
2023-05-17T11:46:50.375Z,99247.59
2023-05-17T11:49:55.686Z,99240.97
2023-05-17T11:53:00.169Z,99244.34
2023-05-17T11:56:05.366Z,99239.16
2023-05-17T11:59:07.992Z,99237.97
2023-05-17T12:02:10.957Z,99239.75
2023-05-17T12:05:20.884Z,99239.59
2023-05-17T12:08:23.539Z,99239.66
2023-05-17T12:11:27.855Z,99247.66
2023-05-17T12:14:31.157Z,99251.41
2023-05-17T12:17:38.605Z,99245.97
2023-05-17T12:20:55.309Z,99238.00
2023-05-17T12:23:57.951Z,99232.81
2023-05-17T12:27:02.068Z,99233.78
2023-05-17T12:30:15.780Z,99232.19
2023-05-17T12:33:18.578Z,99233.41
2023-05-17T12:36:22.496Z,99232.06
2023-05-17T12:39:25.785Z,99226.63
2023-05-17T12:42:29.934Z,99222.16
2023-05-17T12:45:34.287Z,99220.06
2023-05-17T12:48:37.215Z,99228.41
2023-05-17T12:51:44.090Z,99228.00
2023-05-17T12:54:47.603Z,99229.41
2023-05-17T12:57:52.600Z,99225.00
2023-05-17T13:00:59.972Z,99231.47
2023-05-17T13:04:02.744Z,99222.53
2023-05-17T13:07:06.588Z,99232.84
2023-05-17T13:10:21.221Z,99231.28
2023-05-17T13:13:25.344Z,99230.56
2023-05-17T13:16:31.024Z,99222.72
2023-05-17T13:19:35.813Z,99220.19
2023-05-17T13:22:42.162Z,99214.22
2023-05-17T13:25:44.859Z,99219.34
2023-05-17T13:28:49.478Z,99221.91
2023-05-17T13:31:52.533Z,99226.50
2023-05-17T13:34:55.250Z,99225.19
2023-05-17T13:37:58.124Z,99226.09
2023-05-17T13:41:00.879Z,99227.25
2023-05-17T13:44:04.965Z,99217.28
2023-05-17T13:47:07.886Z,99220.13
2023-05-17T13:50:12.099Z,99217.09
2023-05-17T13:53:14.755Z,99217.69
2023-05-17T13:56:17.315Z,99220.19
2023-05-17T13:59:21.431Z,99228.38
2023-05-17T14:02:24.184Z,99228.66
2023-05-17T14:05:27.485Z,99225.75
2023-05-17T14:08:29.967Z,99226.69
2023-05-17T14:11:32.856Z,99227.13
2023-05-17T14:14:36.790Z,99231.53
2023-05-17T14:17:39.411Z,99220.28
2023-05-17T14:20:42.004Z,99224.28
2023-05-17T14:23:44.836Z,99221.56
2023-05-17T14:26:47.521Z,99227.53
2023-05-17T14:29:51.596Z,99216.38
2023-05-17T14:32:54.387Z,99226.75
2023-05-17T14:35:58.078Z,99216.38
2023-05-17T14:39:00.680Z,99226.28
2023-05-17T14:42:03.367Z,99225.00
2023-05-17T14:45:09.015Z,99216.13
2023-05-17T14:48:12.080Z,99216.25
2023-05-17T14:51:14.731Z,99219.63
2023-05-17T14:54:18.129Z,99217.38
2023-05-17T14:57:21.520Z,99212.28
2023-05-17T15:00:27.039Z,99211.97
2023-05-17T15:03:29.715Z,99215.72
2023-05-17T15:06:32.858Z,99218.16
2023-05-17T15:09:41.350Z,99221.41
2023-05-17T15:12:43.939Z,99224.88
2023-05-17T15:15:48.353Z,99229.53
2023-05-17T15:18:52.284Z,99218.28
2023-05-17T15:21:56.854Z,99225.72
2023-05-17T15:24:59.577Z,99223.72
2023-05-17T15:28:02.204Z,99225.31
2023-05-17T15:31:10.594Z,99219.84
2023-05-17T15:34:13.498Z,99230.41
2023-05-17T15:37:16.494Z,99229.31
2023-05-17T15:40:21.515Z,99223.06
2023-05-17T15:43:24.218Z,99231.13
2023-05-17T15:46:28.217Z,99228.16
2023-05-17T15:49:31.181Z,99229.03
2023-05-17T15:52:33.864Z,99228.84
2023-05-17T15:55:36.778Z,99224.97
2023-05-17T15:58:39.465Z,99218.94
2023-05-17T16:01:46.244Z,99218.38
2023-05-17T16:04:48.999Z,99227.03
2023-05-17T16:07:51.999Z,99220.75
2023-05-17T16:10:54.691Z,99225.63
2023-05-17T16:13:57.902Z,99227.88
2023-05-17T16:17:05.659Z,99222.06
2023-05-17T16:20:09.627Z,99210.09
2023-05-17T16:23:12.844Z,99212.28
2023-05-17T16:26:15.771Z,99204.69
2023-05-17T16:29:18.588Z,99205.84
2023-05-17T16:32:22.729Z,99210.31
2023-05-17T16:35:25.615Z,99208.59
2023-05-17T16:38:28.231Z,99197.91
2023-05-17T16:41:33.413Z,99210.91
2023-05-17T16:44:36.034Z,99209.88
2023-05-17T16:47:40.044Z,99213.81
2023-05-17T16:50:43.352Z,99204.44
2023-05-17T16:53:45.903Z,99206.31
2023-05-17T16:56:48.997Z,99198.28
2023-05-17T16:59:52.102Z,99205.28
2023-05-17T17:02:56.220Z,99196.09
2023-05-17T17:05:59.073Z,99190.75
2023-05-17T17:09:07.026Z,99196.41
2023-05-17T17:12:23.663Z,99190.69
2023-05-17T17:15:27.572Z,99195.16
2023-05-17T17:18:31.866Z,99190.06
2023-05-17T17:21:36.580Z,99190.19
2023-05-17T17:24:39.552Z,99185.03
2023-05-17T17:27:42.149Z,99192.31
2023-05-17T17:30:44.801Z,99195.25
2023-05-17T17:33:48.957Z,99193.81
2023-05-17T17:36:51.561Z,99192.81
2023-05-17T17:39:54.146Z,99196.41
2023-05-17T17:42:56.960Z,99193.00
2023-05-17T17:45:59.654Z,99189.97
2023-05-17T17:49:04.186Z,99198.19
2023-05-17T17:52:06.933Z,99195.38
2023-05-17T17:55:12.940Z,99198.34
2023-05-17T17:58:15.968Z,99198.22
2023-05-17T18:01:18.761Z,99197.69
2023-05-17T18:04:22.771Z,99209.06
2023-05-17T18:07:26.990Z,99204.22
2023-05-17T18:10:31.136Z,99201.88
2023-05-17T18:13:33.947Z,99209.88
2023-05-17T18:16:36.708Z,99199.00
2023-05-17T18:19:40.956Z,99205.34
2023-05-17T18:22:43.780Z,99210.03
2023-05-17T18:25:46.973Z,99208.53
2023-05-17T18:28:49.646Z,99207.69
2023-05-17T18:31:53.033Z,99205.19
2023-05-17T18:34:56.975Z,99197.50
2023-05-17T18:38:00.713Z,99201.88
2023-05-17T18:41:03.294Z,99215.16
2023-05-17T18:44:06.426Z,99206.22
2023-05-17T18:47:09.167Z,99208.94
2023-05-17T18:50:13.207Z,99212.09
2023-05-17T18:53:15.807Z,99216.84
2023-05-17T18:56:22.780Z,99211.09
2023-05-17T18:59:25.437Z,99206.03
2023-05-17T19:02:28.574Z,99215.56
2023-05-17T19:05:32.438Z,99216.72
2023-05-17T19:08:35.934Z,99217.06
2023-05-17T19:11:38.439Z,99228.97
2023-05-17T19:14:41.250Z,99226.66
2023-05-17T19:17:43.885Z,99227.44
2023-05-17T19:20:47.981Z,99230.78
2023-05-17T19:23:50.729Z,99229.13
2023-05-17T19:26:53.634Z,99230.06
2023-05-17T19:29:56.302Z,99233.06
2023-05-17T19:32:58.864Z,99237.19
2023-05-17T19:36:02.885Z,99236.03
2023-05-17T19:39:05.605Z,99233.19
2023-05-17T19:42:08.268Z,99247.50
2023-05-17T19:45:11.839Z,99241.84
2023-05-17T19:48:14.247Z,99238.44
2023-05-17T19:51:18.161Z,99240.56
2023-05-17T19:54:21.667Z,99248.34
2023-05-17T19:57:24.237Z,99236.41
2023-05-17T20:00:26.904Z,99244.41
2023-05-17T20:03:29.598Z,99239.06
2023-05-17T20:06:33.666Z,99244.53
2023-05-17T20:09:36.478Z,99243.72
2023-05-17T20:12:39.465Z,99243.56
2023-05-17T20:15:42.317Z,99245.59
2023-05-17T20:18:45.475Z,99246.31
2023-05-17T20:21:49.550Z,99239.97
2023-05-17T20:24:52.345Z,99240.78
2023-05-17T20:27:57.990Z,99244.75
2023-05-17T20:31:00.892Z,99247.09
2023-05-17T20:34:04.336Z,99242.34
2023-05-17T20:37:08.386Z,99248.53
2023-05-17T20:40:11.740Z,99245.31
2023-05-17T20:43:16.774Z,99243.78
2023-05-17T20:46:19.643Z,99242.28
2023-05-17T20:49:22.614Z,99236.53
2023-05-17T20:55:32.356Z,99240.56
2023-05-17T20:58:35.024Z,99240.84
2023-05-17T21:01:37.737Z,99248.75
2023-05-17T21:04:40.981Z,99249.56
2023-05-17T21:07:46.618Z,99242.50
2023-05-17T21:10:49.994Z,99249.97
2023-05-17T21:13:52.563Z,99246.22
2023-05-17T21:16:55.628Z,99248.72
2023-05-17T21:19:58.234Z,99245.84
2023-05-17T21:23:02.321Z,99249.28
2023-05-17T21:26:06.943Z,99243.38
2023-05-17T21:29:09.470Z,99237.75
2023-05-17T21:32:12.161Z,99231.34
2023-05-17T21:35:14.705Z,99225.28
2023-05-17T21:38:18.793Z,99230.59
2023-05-17T21:41:21.594Z,99229.56
2023-05-17T21:44:24.434Z,99218.47
2023-05-17T21:47:27.074Z,99225.28
2023-05-17T21:50:30.850Z,99227.31
2023-05-17T21:53:35.214Z,99226.06
2023-05-17T21:56:37.838Z,99227.78
2023-05-17T21:59:40.540Z,99229.47
2023-05-17T22:02:44.935Z,99225.19
2023-05-17T22:05:48.681Z,99216.59
2023-05-17T22:08:52.582Z,99228.00
2023-05-17T22:11:59.530Z,99221.81
2023-05-17T22:15:02.318Z,99229.25
2023-05-17T22:18:05.473Z,99223.66
2023-05-17T22:21:08.916Z,99227.63
2023-05-17T22:24:12.857Z,99229.59
2023-05-17T22:27:15.462Z,99226.31
2023-05-17T22:30:18.132Z,99229.91
2023-05-17T22:33:21.852Z,99229.31
2023-05-17T22:36:26.724Z,99223.84
2023-05-17T22:39:30.838Z,99217.66
2023-05-17T22:42:33.498Z,99230.53
2023-05-17T22:45:36.168Z,99229.28
2023-05-17T22:48:40.457Z,99227.09
2023-05-17T22:51:43.289Z,99226.03
2023-05-17T22:54:47.449Z,99232.28
2023-05-17T22:57:50.076Z,99224.69
2023-05-17T23:00:53.415Z,99228.88
2023-05-17T23:03:56.502Z,99225.72
2023-05-17T23:07:02.358Z,99219.81
2023-05-17T23:10:08.584Z,99223.41
2023-05-17T23:13:11.611Z,99228.31
2023-05-17T23:16:14.694Z,99226.41
2023-05-17T23:19:18.136Z,99225.00
2023-05-17T23:22:20.970Z,99219.88
2023-05-17T23:25:25.121Z,99222.34
2023-05-17T23:28:27.840Z,99217.25
2023-05-17T23:31:30.886Z,99218.13
2023-05-17T23:34:33.502Z,99222.78
2023-05-17T23:37:36.679Z,99215.19
2023-05-17T23:40:40.958Z,99219.31
2023-05-17T23:43:43.663Z,99215.66
2023-05-17T23:46:46.303Z,99215.25
2023-05-17T23:49:49.181Z,99218.75
2023-05-17T23:52:51.845Z,99224.88
2023-05-17T23:55:56.147Z,99216.28
2023-05-17T23:58:58.803Z,99206.06
